Time;durP1;ratioP1;P1;durP2;ratioP2;P2;SDS_P1;SDS_P2;PMS_P1;PMS_P2;Temp;Humidity;BMP_temperature;BMP_pressure;BME280_temperature;BME280_humidity;BME280_pressure;Samples;Min_cycle;Max_cycle;Signal;HPM_P1;HPM_P2
2022/01/13 01:08:08;;;;;;;;;;;;;;;-18.82;62.53;97894.31;6374791;27;19919;-61
2022/01/13 01:11:10;;;;;;;;;;;;;;;-18.81;62.82;97891.91;6374371;27;20022;-63
2022/01/13 01:14:54;;;;;;;;;;;;;;;-18.84;62.57;97895.88;6374320;27;19927;-63
2022/01/13 01:18:05;;;;;;;;;;;;;;;-18.81;62.86;97886.88;6374274;27;19923;-62
2022/01/13 01:24:31;;;;;;;;;;;;;;;-18.78;62.55;97876.19;6373797;27;20016;-63
2022/01/13 01:27:53;;;;;;;;;;;;;;;-18.84;62.68;97870.78;6374055;27;19923;-63
2022/01/13 01:30:55;;;;;;;;;;;;;;;-18.93;62.97;97871.06;6373346;27;19930;-63
2022/01/13 01:37:18;;;;;;;;;;;;;;;-18.99;63.16;97869.78;6372143;27;20327;-63
2022/01/13 01:40:22;;;;;;;;;;;;;;;-18.96;63.16;97874.97;6373348;27;20385;-64
2022/01/13 01:43:24;;;;;;;;;;;;;;;-18.87;63.13;97878.09;6373469;27;20347;-62
2022/01/13 01:46:30;;;;;;;;;;;;;;;-18.85;62.82;97881.56;6356125;27;19964;-64
2022/01/13 01:49:38;;;;;;;;;;;;;;;-18.87;62.81;97884.00;6372971;27;20308;-63
2022/01/13 01:52:40;;;;;;;;;;;;;;;-18.87;62.47;97891.53;6372659;27;19923;-63
2022/01/13 01:55:43;;;;;;;;;;;;;;;-18.85;62.91;97889.09;6373140;27;19923;-62
2022/01/13 01:58:44;;;;;;;;;;;;;;;-18.77;62.92;97897.13;6372266;27;20088;-62
2022/01/13 02:01:46;;;;;;;;;;;;;;;-18.72;62.47;97886.56;6372617;27;19923;-62
2022/01/13 02:04:47;;;;;;;;;;;;;;;-18.68;62.43;97892.66;6373078;27;19919;-63
2022/01/13 02:07:51;;;;;;;;;;;;;;;-18.65;62.96;97897.88;6373219;27;19923;-63
2022/01/13 02:10:52;;;;;;;;;;;;;;;-18.67;62.23;97892.78;6372658;27;19919;-63
2022/01/13 02:13:57;;;;;;;;;;;;;;;-18.72;62.36;97891.59;6372667;27;19923;-62
2022/01/13 02:17:05;;;;;;;;;;;;;;;-18.82;62.03;97892.69;6372618;27;20384;-63
2022/01/13 02:20:07;;;;;;;;;;;;;;;-18.92;62.65;97892.00;6371919;27;19930;-63
2022/01/13 02:23:08;;;;;;;;;;;;;;;-18.99;62.48;97889.84;6372600;27;19923;-63
2022/01/13 02:26:12;;;;;;;;;;;;;;;-19.04;62.71;97887.06;6372412;27;19985;-63
2022/01/13 02:29:13;;;;;;;;;;;;;;;-19.10;62.29;97887.50;6372469;27;19928;-63
2022/01/13 02:32:14;;;;;;;;;;;;;;;-19.19;62.87;97891.03;6372248;27;19923;-63
2022/01/13 02:35:17;;;;;;;;;;;;;;;-19.27;62.30;97883.03;6371805;27;20308;-62
2022/01/13 02:38:18;;;;;;;;;;;;;;;-19.35;62.67;97876.63;6353672;27;19963;-62
2022/01/13 02:41:22;;;;;;;;;;;;;;;-19.39;62.94;97877.19;6371454;27;19927;-63
2022/01/13 02:44:24;;;;;;;;;;;;;;;-19.41;63.25;97868.72;6371000;27;20297;-63
2022/01/13 02:47:58;;;;;;;;;;;;;;;-19.43;63.17;97857.72;6371679;27;19923;-63
2022/01/13 02:50:58;;;;;;;;;;;;;;;-19.47;63.27;97869.19;6370350;27;20338;-64
2022/01/13 02:53:59;;;;;;;;;;;;;;;-19.53;62.71;97869.63;6371479;27;20498;-64
2022/01/13 02:57:00;;;;;;;;;;;;;;;-19.57;62.64;97865.16;6371640;27;19927;-64
2022/01/13 03:00:03;;;;;;;;;;;;;;;-19.65;63.11;97863.81;6371540;27;19924;-63
2022/01/13 03:03:04;;;;;;;;;;;;;;;-19.74;62.63;97869.06;6371435;27;19929;-62
2022/01/13 03:06:09;;;;;;;;;;;;;;;-19.84;62.93;97875.84;6369608;27;20447;-63
2022/01/13 03:09:15;;;;;;;;;;;;;;;-19.91;62.84;97868.72;6371327;27;19929;-63
2022/01/13 03:12:16;;;;;;;;;;;;;;;-19.99;63.36;97870.69;6370862;27;19926;-62
2022/01/13 03:15:17;;;;;;;;;;;;;;;-20.07;63.00;97877.66;6371514;27;20012;-63
2022/01/13 03:18:19;;;;;;;;;;;;;;;-20.08;63.51;97868.41;6371032;28;19937;-63
2022/01/13 03:21:20;;;;;;;;;;;;;;;-20.06;62.95;97869.41;6371482;28;19923;-63
2022/01/13 03:24:26;;;;;;;;;;;;;;;-20.15;63.33;97868.78;6371343;28;20361;-62
2022/01/13 03:27:34;;;;;;;;;;;;;;;-20.19;62.82;97866.81;6370655;28;20003;-63
2022/01/13 03:30:35;;;;;;;;;;;;;;;-20.17;62.90;97875.31;6371403;28;20027;-62
2022/01/13 03:33:36;;;;;;;;;;;;;;;-20.21;63.83;97866.72;6370576;28;19923;-63
2022/01/13 03:36:37;;;;;;;;;;;;;;;-20.22;63.29;97874.97;6370312;28;19926;-62
2022/01/13 03:39:38;;;;;;;;;;;;;;;-20.25;62.91;97866.38;6369975;28;19923;-62
2022/01/13 03:42:39;;;;;;;;;;;;;;;-20.29;63.74;97864.41;6370226;28;19924;-62
2022/01/13 03:45:45;;;;;;;;;;;;;;;-20.29;62.89;97862.81;6371273;28;19924;-63
2022/01/13 03:48:46;;;;;;;;;;;;;;;-20.28;63.07;97858.66;6370222;28;19929;-63
2022/01/13 03:51:55;;;;;;;;;;;;;;;-20.32;63.04;97865.09;6352129;28;19953;-63
2022/01/13 03:55:14;;;;;;;;;;;;;;;-20.36;63.17;97855.63;6370908;28;19946;-63
2022/01/13 03:58:18;;;;;;;;;;;;;;;-20.41;63.22;97850.28;6371817;27;19923;-63
2022/01/13 04:01:50;;;;;;;;;;;;;;;-20.43;63.04;97856.84;6375575;27;19923;-63
2022/01/13 04:04:57;;;;;;;;;;;;;;;-20.50;63.61;97854.66;6375672;27;19930;-63
2022/01/13 04:07:58;;;;;;;;;;;;;;;-20.59;62.74;97860.69;6375715;27;19946;-63
2022/01/13 04:11:04;;;;;;;;;;;;;;;-20.64;62.95;97850.34;6375816;27;19923;-63
2022/01/13 04:14:08;;;;;;;;;;;;;;;-20.66;63.35;97867.78;6375505;27;20403;-62
2022/01/13 04:17:22;;;;;;;;;;;;;;;-20.66;62.66;97866.88;6375527;27;20008;-63
2022/01/13 04:20:25;;;;;;;;;;;;;;;-20.71;63.04;97866.56;6375852;27;19923;-64
2022/01/13 04:23:26;;;;;;;;;;;;;;;-20.70;62.20;97864.94;6375459;27;20392;-62
2022/01/13 04:26:28;;;;;;;;;;;;;;;-20.71;62.31;97865.69;6374600;27;19923;-62
2022/01/13 04:29:41;;;;;;;;;;;;;;;-20.71;62.50;97875.72;6374874;27;19923;-63
2022/01/13 04:32:47;;;;;;;;;;;;;;;-20.67;62.69;97878.50;6374610;27;20814;-62
2022/01/13 04:35:48;;;;;;;;;;;;;;;-20.65;62.75;97883.63;6374556;27;19923;-62
2022/01/13 04:38:49;;;;;;;;;;;;;;;-20.62;62.42;97879.72;6374565;27;19923;-63
2022/01/13 04:41:50;;;;;;;;;;;;;;;-20.56;62.11;97869.28;6374087;27;19931;-63
2022/01/13 04:44:51;;;;;;;;;;;;;;;-20.49;62.87;97876.44;6375043;27;19923;-63
2022/01/13 04:47:56;;;;;;;;;;;;;;;-20.45;62.08;97860.84;6374263;27;19931;-62
2022/01/13 04:50:57;;;;;;;;;;;;;;;-20.40;62.38;97871.19;6375157;27;19930;-63
2022/01/13 04:53:58;;;;;;;;;;;;;;;-20.37;62.34;97873.91;6373606;27;20312;-62
2022/01/13 05:00:06;;;;;;;;;;;;;;;-20.25;62.21;97859.75;6373522;27;20015;-63
2022/01/13 05:03:10;;;;;;;;;;;;;;;-20.14;61.75;97857.97;6374656;27;20381;-63
2022/01/13 05:06:13;;;;;;;;;;;;;;;-20.04;61.29;97851.97;6374736;27;19927;-62
2022/01/13 05:09:14;;;;;;;;;;;;;;;-19.89;61.93;97857.16;6355645;27;20300;-64
2022/01/13 05:12:18;;;;;;;;;;;;;;;-19.77;61.07;97852.97;6374446;27;20300;-62
2022/01/13 05:15:27;;;;;;;;;;;;;;;-19.65;60.92;97856.31;6374351;27;19923;-62
2022/01/13 05:24:53;;;;;;;;;;;;;;;-19.28;60.62;97856.19;6374132;27;19924;-63
2022/01/13 05:27:55;;;;;;;;;;;;;;;-19.19;60.31;97851.78;6374281;27;19923;-63
2022/01/13 05:30:55;;;;;;;;;;;;;;;-19.06;60.40;97854.31;6373922;27;19931;-63
2022/01/13 05:34:00;;;;;;;;;;;;;;;-18.90;60.28;97850.31;6373799;27;20044;-63
2022/01/13 05:37:01;;;;;;;;;;;;;;;-18.70;60.03;97842.38;6373076;27;19924;-62
2022/01/13 05:40:02;;;;;;;;;;;;;;;-18.50;59.84;97838.63;6373657;27;20316;-64
2022/01/13 05:43:07;;;;;;;;;;;;;;;-18.25;59.70;97830.09;6372742;27;20442;-62
2022/01/13 05:46:08;;;;;;;;;;;;;;;-18.08;59.38;97829.47;6372804;27;20312;-63
2022/01/13 05:49:09;;;;;;;;;;;;;;;-17.95;58.46;97831.94;6372691;27;19923;-63
2022/01/13 05:52:13;;;;;;;;;;;;;;;-17.84;57.70;97830.06;6373182;27;19989;-62
2022/01/13 05:55:15;;;;;;;;;;;;;;;-17.73;57.76;97831.56;6373050;27;19923;-62
2022/01/13 05:58:16;;;;;;;;;;;;;;;-17.60;58.24;97834.78;6372849;27;19923;-63
2022/01/13 06:01:17;;;;;;;;;;;;;;;-17.48;58.20;97830.50;6372997;27;19964;-63
2022/01/13 06:04:18;;;;;;;;;;;;;;;-17.37;58.35;97832.00;6371373;27;20277;-64
2022/01/13 06:07:21;;;;;;;;;;;;;;;-17.25;58.26;97835.22;6372292;27;19924;-63
2022/01/13 06:10:25;;;;;;;;;;;;;;;-17.11;58.12;97837.66;6372942;27;20014;-62
2022/01/13 06:13:26;;;;;;;;;;;;;;;-17.00;58.02;97837.50;6372815;27;20481;-63
2022/01/13 06:16:29;;;;;;;;;;;;;;;-16.82;58.02;97830.09;6372789;27;20396;-64
2022/01/13 06:19:30;;;;;;;;;;;;;;;-16.67;57.46;97836.75;6353808;27;19972;-63
2022/01/13 06:22:31;;;;;;;;;;;;;;;-16.50;57.09;97823.44;6372012;27;19924;-64
2022/01/13 06:25:35;;;;;;;;;;;;;;;-16.26;57.18;97820.53;6371434;27;19926;-62
2022/01/13 06:28:36;;;;;;;;;;;;;;;-16.04;57.22;97818.38;6371964;27;20388;-63
2022/01/13 06:31:37;;;;;;;;;;;;;;;-15.89;56.78;97819.19;6371890;27;19923;-63
2022/01/13 06:34:38;;;;;;;;;;;;;;;-15.79;56.22;97819.66;6372390;27;20384;-65
2022/01/13 06:37:42;;;;;;;;;;;;;;;-15.69;56.49;97814.31;6372104;27;19926;-63
2022/01/13 06:40:43;;;;;;;;;;;;;;;-15.56;56.50;97819.19;6371593;27;19930;-62
2022/01/13 06:43:45;;;;;;;;;;;;;;;-15.44;56.95;97817.28;6371369;27;20415;-62
2022/01/13 06:46:48;;;;;;;;;;;;;;;-15.28;56.76;97805.41;6371513;27;19923;-63
2022/01/13 06:49:49;;;;;;;;;;;;;;;-15.09;56.44;97797.97;6371677;27;20314;-63
2022/01/13 06:52:50;;;;;;;;;;;;;;;-14.86;56.82;97791.53;6371587;27;19927;-63
2022/01/13 06:55:51;;;;;;;;;;;;;;;-14.68;56.07;97791.56;6370890;27;19923;-63
2022/01/13 06:58:55;;;;;;;;;;;;;;;-14.53;56.29;97792.28;6370987;27;20091;-63
2022/01/13 07:01:59;;;;;;;;;;;;;;;-14.30;56.01;97789.91;6370752;27;19930;-62
2022/01/13 07:05:00;;;;;;;;;;;;;;;-14.18;55.38;97790.50;6371381;27;19942;-63
2022/01/13 07:08:02;;;;;;;;;;;;;;;-14.17;55.59;97797.28;6370255;27;19923;-63
2022/01/13 07:11:04;;;;;;;;;;;;;;;-14.09;55.88;97788.38;6371491;27;19926;-64
2022/01/13 07:14:05;;;;;;;;;;;;;;;-13.94;56.22;97779.75;6371481;27;19930;-63
2022/01/13 07:17:09;;;;;;;;;;;;;;;-13.72;56.00;97776.53;6371308;27;19919;-63
2022/01/13 07:20:10;;;;;;;;;;;;;;;-13.48;55.50;97762.38;6370301;28;19927;-63
2022/01/13 07:23:16;;;;;;;;;;;;;;;-13.29;55.62;97756.44;6371392;28;19923;-63
2022/01/13 07:26:19;;;;;;;;;;;;;;;-12.45;55.66;97764.03;6371267;28;19923;-63
2022/01/13 07:29:20;;;;;;;;;;;;;;;-9.35;52.74;97766.56;6371253;28;19923;-62
2022/01/13 07:32:23;;;;;;;;;;;;;;;-4.98;46.15;97762.88;6372241;27;20308;-63
2022/01/13 07:35:24;;;;;;;;;;;;;;;-0.96;36.10;97753.66;6375813;27;19931;-62
2022/01/13 07:38:26;;;;;;;;;;;;;;;1.89;32.61;97756.69;6376519;27;19923;-63
2022/01/13 07:41:29;;;;;;;;;;;;;;;4.09;24.67;97763.47;6376627;27;20380;-63
2022/01/13 07:44:33;;;;;;;;;;;;;;;5.74;22.40;97758.81;6376167;27;20400;-63
2022/01/13 07:47:34;;;;;;;;;;;;;;;7.15;20.85;97751.41;6375432;27;19924;-63
2022/01/13 07:50:35;;;;;;;;;;;;;;;8.54;21.75;97752.88;6357302;27;19923;-63
2022/01/13 07:53:42;;;;;;;;;;;;;;;10.02;24.50;97746.16;6375043;27;19962;-63
2022/01/13 07:56:45;;;;;;;;;;;;;;;11.35;19.90;97735.88;6376078;27;19923;-63
2022/01/13 07:59:49;;;;;;;;;;;;;;;12.69;16.76;97727.38;6357163;27;20055;-63
2022/01/13 08:02:50;;;;;;;;;;;;;;;14.11;14.23;97725.56;6375606;27;19923;-63
2022/01/13 08:05:51;;;;;;;;;;;;;;;14.72;18.82;97725.94;6375202;27;20446;-62
2022/01/13 08:08:55;;;;;;;;;;;;;;;14.95;15.61;97716.41;6374910;27;19924;-63
2022/01/13 08:11:55;;;;;;;;;;;;;;;15.42;15.65;97706.91;6375451;27;19924;-63
2022/01/13 08:14:57;;;;;;;;;;;;;;;15.91;14.64;97710.53;6374328;27;20294;-63
2022/01/13 08:21:20;;;;;;;;;;;;;;;17.06;17.45;97692.06;6373895;27;19923;-63
2022/01/13 08:24:21;;;;;;;;;;;;;;;17.62;16.44;97696.53;6374299;27;19926;-63
2022/01/13 08:27:22;;;;;;;;;;;;;;;18.02;12.56;97688.00;6375203;27;19931;-64
2022/01/13 08:30:23;;;;;;;;;;;;;;;18.20;11.91;97690.13;6374844;27;19920;-64
2022/01/13 08:33:27;;;;;;;;;;;;;;;18.43;12.38;97696.19;6374776;27;19927;-63
2022/01/13 08:36:31;;;;;;;;;;;;;;;18.73;17.09;97698.94;6374954;27;19924;-63
2022/01/13 08:39:41;;;;;;;;;;;;;;;18.87;12.70;97691.63;6373632;27;19930;-63
2022/01/13 08:42:44;;;;;;;;;;;;;;;18.53;16.51;97691.78;6374920;27;19923;-63
2022/01/13 08:45:46;;;;;;;;;;;;;;;18.25;12.10;97688.75;6355414;27;19923;-64
2022/01/13 08:48:49;;;;;;;;;;;;;;;18.08;15.95;97684.00;6374681;27;20385;-64
2022/01/13 08:51:54;;;;;;;;;;;;;;;17.94;19.27;97688.63;6374664;27;19931;-62
2022/01/13 08:54:55;;;;;;;;;;;;;;;18.00;20.14;97683.78;6373799;27;19930;-62
2022/01/13 08:57:56;;;;;;;;;;;;;;;17.80;19.54;97677.41;6373085;27;19930;-63
2022/01/13 09:00:58;;;;;;;;;;;;;;;17.47;21.22;97676.50;6374504;27;20304;-63
2022/01/13 09:03:59;;;;;;;;;;;;;;;17.30;18.34;97671.69;6374357;27;19923;-63
2022/01/13 09:07:03;;;;;;;;;;;;;;;16.98;18.98;97670.56;6374273;27;20320;-63
2022/01/13 09:10:07;;;;;;;;;;;;;;;16.72;14.97;97658.44;6374274;27;20298;-63
2022/01/13 09:13:11;;;;;;;;;;;;;;;16.55;14.08;97654.41;6373124;27;19920;-63
2022/01/13 09:16:17;;;;;;;;;;;;;;;16.29;19.43;97649.28;6374290;27;19923;-63
2022/01/13 09:19:20;;;;;;;;;;;;;;;16.13;14.71;97641.59;6374157;27;20315;-63
2022/01/13 09:22:21;;;;;;;;;;;;;;;16.08;17.56;97638.47;6373392;27;19967;-62
2022/01/13 09:25:22;;;;;;;;;;;;;;;16.14;14.73;97632.69;6373225;27;19924;-62
2022/01/13 09:28:25;;;;;;;;;;;;;;;16.22;16.35;97639.22;6373108;27;19946;-63
2022/01/13 09:31:26;;;;;;;;;;;;;;;16.19;13.39;97623.53;6372861;27;19923;-63
2022/01/13 09:34:30;;;;;;;;;;;;;;;16.02;13.88;97623.00;6373423;27;19923;-63
2022/01/13 09:37:32;;;;;;;;;;;;;;;15.70;13.85;97618.25;6373206;27;19923;-63
2022/01/13 09:40:35;;;;;;;;;;;;;;;15.46;13.42;97615.59;6372882;27;19930;-62
2022/01/13 09:43:37;;;;;;;;;;;;;;;14.74;15.00;97607.47;6372522;27;20308;-63
2022/01/13 09:46:44;;;;;;;;;;;;;;;14.61;17.36;97601.34;6373309;27;20034;-62
2022/01/13 09:49:45;;;;;;;;;;;;;;;14.50;13.74;97593.25;6373396;27;19930;-63
2022/01/13 09:52:49;;;;;;;;;;;;;;;14.27;18.80;97593.03;6373201;27;19924;-63
2022/01/13 09:55:50;;;;;;;;;;;;;;;13.89;14.99;97585.88;6353689;27;19923;-63
2022/01/13 09:58:51;;;;;;;;;;;;;;;13.59;17.63;97574.72;6373072;27;19927;-63
2022/01/13 10:01:55;;;;;;;;;;;;;;;12.95;17.46;97580.50;6355129;27;19923;-63
2022/01/13 10:04:56;;;;;;;;;;;;;;;12.46;19.47;97578.28;6372719;27;19972;-63
2022/01/13 10:07:57;;;;;;;;;;;;;;;11.86;20.04;97586.28;6371552;27;19923;-62
2022/01/13 10:11:21;;;;;;;;;;;;;;;11.60;13.99;97580.69;6372944;27;20416;-63
2022/01/13 10:17:29;;;;;;;;;;;;;;;11.60;15.34;97567.53;6371474;27;19930;-63
2022/01/13 10:20:33;;;;;;;;;;;;;;;11.28;15.84;97555.38;6372671;27;19923;-63
2022/01/13 10:23:38;;;;;;;;;;;;;;;10.80;15.11;97555.38;6372127;27;19923;-63
2022/01/13 10:26:55;;;;;;;;;;;;;;;10.27;15.49;97552.06;6372485;27;19923;-63
2022/01/13 10:30:06;;;;;;;;;;;;;;;8.06;17.90;97546.91;6372817;27;19923;-63
2022/01/13 10:33:17;;;;;;;;;;;;;;;4.27;21.44;97531.13;6372313;27;19923;-63
2022/01/13 10:36:20;;;;;;;;;;;;;;;0.93;23.49;97536.06;6372690;27;20018;-65
2022/01/13 10:39:30;;;;;;;;;;;;;;;-1.23;27.79;97523.97;6372145;27;20019;-63
2022/01/13 10:45:48;;;;;;;;;;;;;;;-4.07;33.38;97527.19;6372162;27;19919;-64
2022/01/13 10:49:07;;;;;;;;;;;;;;;-5.04;34.14;97521.56;6371376;27;19923;-63
2022/01/13 10:52:18;;;;;;;;;;;;;;;-5.90;35.06;97514.84;6371347;27;19927;-63
2022/01/13 10:55:21;;;;;;;;;;;;;;;-6.66;35.86;97519.97;6371192;27;19930;-64
2022/01/13 10:58:26;;;;;;;;;;;;;;;-7.32;36.24;97519.03;6371676;27;19930;-64
2022/01/13 11:01:33;;;;;;;;;;;;;;;-7.86;36.04;97514.75;6371581;27;19930;-64
2022/01/13 11:04:34;;;;;;;;;;;;;;;-8.46;36.12;97506.00;6371076;27;20294;-64
2022/01/13 11:07:40;;;;;;;;;;;;;;;-8.82;36.29;97509.53;6370691;27;19927;-64
2022/01/13 11:10:49;;;;;;;;;;;;;;;-9.14;36.07;97517.34;6371430;27;19928;-64
2022/01/13 11:13:56;;;;;;;;;;;;;;;-9.44;36.50;97516.63;6370569;27;20351;-63
2022/01/13 11:16:58;;;;;;;;;;;;;;;-9.71;36.33;97515.13;6371306;27;19923;-64
2022/01/13 11:19:59;;;;;;;;;;;;;;;-9.99;36.76;97509.34;6370514;28;19923;-63
2022/01/13 11:23:02;;;;;;;;;;;;;;;-10.26;36.75;97504.41;6371093;28;20363;-64
2022/01/13 11:26:04;;;;;;;;;;;;;;;-10.57;36.76;97500.19;6370784;28;19934;-65
2022/01/13 11:29:08;;;;;;;;;;;;;;;-10.81;36.96;97502.03;6370307;28;19923;-63
2022/01/13 11:32:09;;;;;;;;;;;;;;;-11.09;37.48;97496.19;6371356;28;20413;-64
2022/01/13 11:35:11;;;;;;;;;;;;;;;-11.32;37.66;97478.59;6371181;28;19930;-63
2022/01/13 11:38:16;;;;;;;;;;;;;;;-11.48;38.18;97486.53;6370606;28;19923;-64
2022/01/13 11:41:17;;;;;;;;;;;;;;;-11.77;38.28;97473.81;6370476;28;20007;-64
2022/01/13 11:44:22;;;;;;;;;;;;;;;-11.90;39.27;97466.66;6370713;28;20319;-63
2022/01/13 11:47:25;;;;;;;;;;;;;;;-12.33;39.72;97457.63;6370941;28;19937;-63
2022/01/13 11:50:41;;;;;;;;;;;;;;;-12.71;40.15;97454.66;6370869;28;20026;-64
2022/01/13 11:53:53;;;;;;;;;;;;;;;-12.91;39.80;97458.16;6370600;28;19930;-63
2022/01/13 11:57:13;;;;;;;;;;;;;;;-13.17;40.09;97450.47;6369969;28;19976;-63
2022/01/13 12:00:17;;;;;;;;;;;;;;;-13.31;40.35;97454.19;6370866;28;20018;-63
2022/01/13 12:03:25;;;;;;;;;;;;;;;-13.62;41.28;97458.09;6370820;28;19924;-64
2022/01/13 12:06:34;;;;;;;;;;;;;;;-13.89;42.29;97455.38;6369986;28;19930;-64
2022/01/13 12:09:39;;;;;;;;;;;;;;;-14.39;42.49;97450.81;6370670;28;19923;-64
2022/01/13 12:12:43;;;;;;;;;;;;;;;-14.62;42.78;97457.50;6370817;28;20403;-64
2022/01/13 12:15:44;;;;;;;;;;;;;;;-14.81;42.87;97451.63;6370693;28;19934;-64
2022/01/13 12:18:48;;;;;;;;;;;;;;;-14.99;43.27;97441.63;6370297;27;19923;-64
2022/01/13 12:22:03;;;;;;;;;;;;;;;-15.20;43.30;97440.69;6375367;27;20025;-63
2022/01/13 12:25:06;;;;;;;;;;;;;;;-15.36;43.46;97423.16;6374693;27;19923;-65
2022/01/13 12:28:15;;;;;;;;;;;;;;;-15.57;43.35;97425.56;6374521;27;19923;-63
2022/01/13 12:31:26;;;;;;;;;;;;;;;-15.73;43.65;97436.69;6375050;27;19923;-64
2022/01/13 12:34:28;;;;;;;;;;;;;;;-15.90;43.84;97438.41;6374437;27;20304;-64
2022/01/13 12:37:30;;;;;;;;;;;;;;;-16.02;43.96;97433.66;6374659;27;19945;-65
2022/01/13 12:40:35;;;;;;;;;;;;;;;-16.10;44.13;97425.75;6374643;27;19923;-63
2022/01/13 12:46:45;;;;;;;;;;;;;;;-16.27;43.56;97420.69;6374517;27;19923;-64
2022/01/13 12:49:46;;;;;;;;;;;;;;;-16.43;44.79;97409.88;6373893;27;19931;-64
2022/01/13 12:52:48;;;;;;;;;;;;;;;-16.50;44.36;97412.88;6374571;27;19931;-64
2022/01/13 12:56:09;;;;;;;;;;;;;;;-16.56;44.21;97412.59;6374467;27;19933;-64
2022/01/13 12:59:11;;;;;;;;;;;;;;;-16.64;44.16;97406.31;6373518;27;19930;-64
2022/01/13 13:02:15;;;;;;;;;;;;;;;-16.77;46.97;97395.69;6374478;27;19949;-63
2022/01/13 13:05:32;;;;;;;;;;;;;;;-16.79;44.64;97391.38;6374289;27;19923;-63
2022/01/13 13:08:33;;;;;;;;;;;;;;;-16.89;43.83;97387.56;6373672;27;20316;-64
2022/01/13 13:11:38;;;;;;;;;;;;;;;-17.05;43.90;97390.09;6374310;27;20025;-63
2022/01/13 13:18:03;;;;;;;;;;;;;;;-17.29;43.71;97399.75;6372832;27;20448;-65
2022/01/13 13:21:05;;;;;;;;;;;;;;;-17.40;43.63;97391.69;6373552;27;19923;-64
2022/01/13 13:24:08;;;;;;;;;;;;;;;-17.48;43.48;97401.34;6373871;27;19923;-64
2022/01/13 13:27:12;;;;;;;;;;;;;;;-17.61;43.46;97390.56;6373516;27;19923;-65
2022/01/13 13:30:15;;;;;;;;;;;;;;;-17.67;44.89;97381.94;6373582;27;19937;-64
2022/01/13 13:33:18;;;;;;;;;;;;;;;-17.68;44.31;97379.34;6373425;27;19923;-64
2022/01/13 13:36:23;;;;;;;;;;;;;;;-17.70;44.07;97381.78;6373340;27;20309;-64
2022/01/13 13:39:26;;;;;;;;;;;;;;;-17.76;44.00;97383.97;6373762;27;19923;-64
2022/01/13 13:42:27;;;;;;;;;;;;;;;-17.85;43.81;97381.00;6372711;27;19923;-64
2022/01/13 13:45:28;;;;;;;;;;;;;;;-17.91;44.10;97383.22;6372583;27;19934;-64
2022/01/13 13:48:36;;;;;;;;;;;;;;;-17.99;44.18;97377.78;6373371;27;20385;-64
2022/01/13 13:51:38;;;;;;;;;;;;;;;-18.01;44.12;97383.50;6372415;27;19923;-64
2022/01/13 13:54:52;;;;;;;;;;;;;;;-18.06;44.64;97360.63;6372940;27;19923;-63
2022/01/13 13:57:56;;;;;;;;;;;;;;;-18.12;44.67;97358.66;6372531;27;19923;-64
2022/01/13 14:01:07;;;;;;;;;;;;;;;-18.14;44.58;97375.31;6372136;27;19931;-64
2022/01/13 14:04:10;;;;;;;;;;;;;;;-18.16;45.17;97384.41;6373007;27;20245;-64
2022/01/13 14:07:25;;;;;;;;;;;;;;;-18.12;44.52;97390.44;6355060;27;19927;-64
2022/01/13 14:10:29;;;;;;;;;;;;;;;-18.18;44.63;97390.97;6372707;27;19931;-64
2022/01/13 14:13:30;;;;;;;;;;;;;;;-18.25;45.73;97383.91;6372588;27;20068;-64
2022/01/13 14:16:35;;;;;;;;;;;;;;;-18.21;45.98;97374.88;6372586;27;20389;-64
2022/01/13 14:19:56;;;;;;;;;;;;;;;-18.19;44.88;97371.69;6372038;27;19924;-64
2022/01/13 14:23:01;;;;;;;;;;;;;;;-18.27;45.09;97347.78;6371151;27;19930;-63
2022/01/13 14:26:12;;;;;;;;;;;;;;;-18.32;45.32;97358.38;6372824;27;19924;-65
2022/01/13 14:29:20;;;;;;;;;;;;;;;-18.34;45.28;97353.25;6372086;27;19923;-64
2022/01/13 14:32:22;;;;;;;;;;;;;;;-18.44;45.23;97343.53;6353642;27;19924;-63
2022/01/13 14:35:27;;;;;;;;;;;;;;;-18.44;45.32;97343.53;6336363;27;20411;-64
2022/01/13 14:38:34;;;;;;;;;;;;;;;-18.47;45.47;97350.88;6371260;27;20420;-65
2022/01/13 14:41:40;;;;;;;;;;;;;;;-18.48;45.64;97346.63;6371961;27;19923;-64
2022/01/13 14:44:41;;;;;;;;;;;;;;;-18.52;45.37;97347.25;6371867;27;19923;-64
2022/01/13 14:47:43;;;;;;;;;;;;;;;-18.66;45.78;97343.97;6372056;27;20385;-65
2022/01/13 14:50:47;;;;;;;;;;;;;;;-18.75;48.51;97324.31;6371400;27;20335;-64
2022/01/13 14:53:48;;;;;;;;;;;;;;;-18.71;46.94;97316.13;6371760;27;20392;-64
2022/01/13 14:56:52;;;;;;;;;;;;;;;-18.74;46.35;97321.00;6371774;27;20439;-65
2022/01/13 14:59:56;;;;;;;;;;;;;;;-18.75;47.11;97304.22;6371526;27;19923;-65
2022/01/13 15:03:00;;;;;;;;;;;;;;;-18.73;46.66;97302.66;6371771;27;19924;-64
2022/01/13 15:06:01;;;;;;;;;;;;;;;-18.76;46.90;97300.00;6370754;27;20393;-65
2022/01/13 15:09:03;;;;;;;;;;;;;;;-18.77;46.38;97310.81;6371702;27;20018;-65
2022/01/13 15:12:04;;;;;;;;;;;;;;;-18.86;46.45;97307.78;6370742;27;19936;-66
2022/01/13 15:15:05;;;;;;;;;;;;;;;-18.97;46.34;97287.13;6371473;27;20414;-65
2022/01/13 15:18:09;;;;;;;;;;;;;;;-19.00;46.72;97271.06;6371353;27;20307;-63
2022/01/13 15:21:11;;;;;;;;;;;;;;;-19.04;46.37;97260.84;6371415;28;19927;-64
2022/01/13 15:24:12;;;;;;;;;;;;;;;-19.12;46.67;97267.09;6370605;28;20030;-64
2022/01/13 15:27:13;;;;;;;;;;;;;;;-19.20;46.64;97262.44;6371339;28;19927;-64
2022/01/13 15:30:16;;;;;;;;;;;;;;;-19.29;46.95;97262.78;6371621;28;19923;-64
2022/01/13 15:33:18;;;;;;;;;;;;;;;-19.31;46.94;97254.31;6371318;28;20343;-64
2022/01/13 15:36:20;;;;;;;;;;;;;;;-19.39;47.37;97250.50;6371282;28;19930;-64
2022/01/13 15:39:21;;;;;;;;;;;;;;;-19.44;47.40;97239.34;6371210;28;19934;-64
2022/01/13 15:42:22;;;;;;;;;;;;;;;-19.44;47.24;97236.84;6370667;28;20320;-63
2022/01/13 15:45:26;;;;;;;;;;;;;;;-19.44;47.73;97237.72;6370410;28;19924;-64
2022/01/13 15:48:27;;;;;;;;;;;;;;;-19.44;47.65;97231.81;6370508;28;19942;-64
2022/01/13 15:51:28;;;;;;;;;;;;;;;-19.44;47.95;97231.81;6370456;28;20404;-63
2022/01/13 15:54:32;;;;;;;;;;;;;;;-19.45;47.03;97225.09;6345319;28;20369;-64
2022/01/13 15:57:36;;;;;;;;;;;;;;;-19.50;47.44;97223.22;6350580;28;19947;-63
2022/01/13 16:00:39;;;;;;;;;;;;;;;-19.56;47.29;97220.31;6350607;28;19923;-64
2022/01/13 16:03:40;;;;;;;;;;;;;;;-19.67;47.44;97215.53;6350049;28;20408;-63
2022/01/13 16:06:44;;;;;;;;;;;;;;;-19.75;47.68;97215.13;6350459;28;19924;-63
2022/01/13 16:09:45;;;;;;;;;;;;;;;-19.81;48.17;97209.72;6350219;28;19930;-63
2022/01/13 16:12:46;;;;;;;;;;;;;;;-19.88;47.79;97206.03;6349886;28;19924;-64
2022/01/13 16:15:52;;;;;;;;;;;;;;;-19.92;47.98;97196.63;6350284;27;19947;-64
2022/01/13 16:18:53;;;;;;;;;;;;;;;-19.95;48.02;97188.94;6350027;28;19954;-64
2022/01/13 16:21:57;;;;;;;;;;;;;;;-19.98;48.17;97187.13;6350007;28;19927;-64
2022/01/13 16:25:03;;;;;;;;;;;;;;;-20.03;48.26;97183.47;6349942;28;19928;-64
2022/01/13 16:28:07;;;;;;;;;;;;;;;-20.06;48.39;97178.31;6349939;28;19980;-64
2022/01/13 16:31:08;;;;;;;;;;;;;;;-20.12;48.93;97162.94;6349325;28;19924;-63
2022/01/13 16:34:12;;;;;;;;;;;;;;;-20.13;48.59;97156.19;6350013;28;19934;-63
2022/01/13 16:37:13;;;;;;;;;;;;;;;-20.14;48.97;97151.97;6348409;28;19959;-63
2022/01/13 16:40:19;;;;;;;;;;;;;;;-20.13;49.05;97145.31;6349749;28;19924;-64
2022/01/13 16:43:20;;;;;;;;;;;;;;;-20.12;49.12;97147.91;6349289;28;20401;-64
2022/01/13 16:46:26;;;;;;;;;;;;;;;-20.12;49.18;97152.03;6349138;27;19930;-64
2022/01/13 16:49:32;;;;;;;;;;;;;;;-20.19;49.17;97155.84;6349460;28;19924;-64
2022/01/13 16:52:35;;;;;;;;;;;;;;;-20.26;48.56;97151.25;6349915;28;19923;-63
2022/01/13 16:55:37;;;;;;;;;;;;;;;-20.30;49.50;97149.34;6374117;27;19923;-65
2022/01/13 16:58:38;;;;;;;;;;;;;;;-20.35;49.55;97134.03;6374232;27;20417;-64
2022/01/13 17:01:45;;;;;;;;;;;;;;;-20.40;49.56;97131.31;6374391;27;20026;-64
2022/01/13 17:04:45;;;;;;;;;;;;;;;-20.41;49.45;97134.56;6374129;27;19923;-64
2022/01/13 17:07:48;;;;;;;;;;;;;;;-20.44;48.73;97126.88;6374216;27;19929;-63
2022/01/13 17:10:54;;;;;;;;;;;;;;;-20.48;48.92;97122.47;6374562;27;20380;-63
2022/01/13 17:13:57;;;;;;;;;;;;;;;-20.50;49.10;97116.53;6373772;27;19930;-64
2022/01/13 17:17:04;;;;;;;;;;;;;;;-20.51;49.13;97117.31;6374443;27;19923;-63
2022/01/13 17:20:06;;;;;;;;;;;;;;;-20.49;49.43;97118.25;6374192;27;19923;-65
2022/01/13 17:23:07;;;;;;;;;;;;;;;-20.51;49.74;97116.44;6374200;27;19937;-64
2022/01/13 17:26:08;;;;;;;;;;;;;;;-20.55;49.77;97097.91;6354824;27;19923;-64
2022/01/13 17:29:11;;;;;;;;;;;;;;;-20.55;49.77;97085.41;6373045;27;20296;-64